sensor_id;sensor_type;location;lat;lon;timestamp;P1;durP1;ratioP1;P2;durP2;ratioP2
51495;SDS011;37572;52.094;4.870;2022-11-18T00:02:03;7.20;;;4.32;;
51495;SDS011;37572;52.094;4.870;2022-11-18T00:04:29;6.78;;;4.30;;
51495;SDS011;37572;52.094;4.870;2022-11-18T00:06:54;9.27;;;4.83;;
51495;SDS011;37572;52.094;4.870;2022-11-18T00:09:19;6.80;;;4.70;;
51495;SDS011;37572;52.094;4.870;2022-11-18T00:11:44;9.60;;;4.70;;
51495;SDS011;37572;52.094;4.870;2022-11-18T00:14:28;9.23;;;4.88;;
51495;SDS011;37572;52.094;4.870;2022-11-18T00:17:00;7.70;;;4.05;;
51495;SDS011;37572;52.094;4.870;2022-11-18T00:19:26;8.70;;;4.65;;
51495;SDS011;37572;52.094;4.870;2022-11-18T00:21:52;8.88;;;4.95;;
51495;SDS011;37572;52.094;4.870;2022-11-18T00:24:18;9.18;;;4.35;;
51495;SDS011;37572;52.094;4.870;2022-11-18T00:26:43;8.27;;;4.82;;
51495;SDS011;37572;52.094;4.870;2022-11-18T00:29:09;8.70;;;4.57;;
51495;SDS011;37572;52.094;4.870;2022-11-18T00:31:34;6.68;;;4.10;;
51495;SDS011;37572;52.094;4.870;2022-11-18T00:34:00;6.82;;;3.97;;
51495;SDS011;37572;52.094;4.870;2022-11-18T00:36:25;7.93;;;4.05;;
51495;SDS011;37572;52.094;4.870;2022-11-18T00:38:50;8.73;;;4.20;;
51495;SDS011;37572;52.094;4.870;2022-11-18T00:41:15;11.17;;;4.87;;
51495;SDS011;37572;52.094;4.870;2022-11-18T00:43:41;10.38;;;4.65;;
51495;SDS011;37572;52.094;4.870;2022-11-18T00:46:07;7.32;;;4.47;;
51495;SDS011;37572;52.094;4.870;2022-11-18T00:48:32;6.75;;;4.63;;
51495;SDS011;37572;52.094;4.870;2022-11-18T00:51:04;7.93;;;4.45;;
51495;SDS011;37572;52.094;4.870;2022-11-18T00:55:55;6.88;;;4.22;;
51495;SDS011;37572;52.094;4.870;2022-11-18T00:58:20;8.10;;;4.43;;
51495;SDS011;37572;52.094;4.870;2022-11-18T01:00:46;7.20;;;4.70;;
51495;SDS011;37572;52.094;4.870;2022-11-18T01:03:13;6.50;;;4.13;;
51495;SDS011;37572;52.094;4.870;2022-11-18T01:05:39;7.77;;;4.67;;
51495;SDS011;37572;52.094;4.870;2022-11-18T01:08:05;7.53;;;4.07;;
51495;SDS011;37572;52.094;4.870;2022-11-18T01:10:30;8.02;;;4.05;;
51495;SDS011;37572;52.094;4.870;2022-11-18T01:12:56;7.75;;;4.47;;
51495;SDS011;37572;52.094;4.870;2022-11-18T01:18:05;7.18;;;4.50;;
51495;SDS011;37572;52.094;4.870;2022-11-18T01:20:31;6.77;;;3.97;;
51495;SDS011;37572;52.094;4.870;2022-11-18T01:22:56;7.68;;;5.10;;
51495;SDS011;37572;52.094;4.870;2022-11-18T01:25:21;9.87;;;4.33;;
51495;SDS011;37572;52.094;4.870;2022-11-18T01:27:46;6.87;;;4.13;;
51495;SDS011;37572;52.094;4.870;2022-11-18T01:30:11;7.80;;;4.37;;
51495;SDS011;37572;52.094;4.870;2022-11-18T01:32:37;11.18;;;4.82;;
51495;SDS011;37572;52.094;4.870;2022-11-18T01:35:02;10.13;;;5.03;;
51495;SDS011;37572;52.094;4.870;2022-11-18T01:37:27;9.23;;;5.20;;
51495;SDS011;37572;52.094;4.870;2022-11-18T01:39:52;7.67;;;4.80;;
51495;SDS011;37572;52.094;4.870;2022-11-18T01:42:18;9.20;;;5.00;;
51495;SDS011;37572;52.094;4.870;2022-11-18T01:44:52;8.40;;;4.50;;
51495;SDS011;37572;52.094;4.870;2022-11-18T01:47:19;9.93;;;4.65;;
51495;SDS011;37572;52.094;4.870;2022-11-18T01:49:45;9.15;;;4.60;;
51495;SDS011;37572;52.094;4.870;2022-11-18T01:52:10;8.83;;;4.50;;
51495;SDS011;37572;52.094;4.870;2022-11-18T01:54:36;8.80;;;4.38;;
51495;SDS011;37572;52.094;4.870;2022-11-18T01:57:04;11.50;;;4.75;;
51495;SDS011;37572;52.094;4.870;2022-11-18T01:59:31;7.95;;;5.22;;
51495;SDS011;37572;52.094;4.870;2022-11-18T02:01:58;8.00;;;4.75;;
51495;SDS011;37572;52.094;4.870;2022-11-18T02:04:23;9.90;;;4.82;;
51495;SDS011;37572;52.094;4.870;2022-11-18T02:06:49;8.23;;;4.32;;
51495;SDS011;37572;52.094;4.870;2022-11-18T02:09:15;11.60;;;4.82;;
51495;SDS011;37572;52.094;4.870;2022-11-18T02:11:41;10.90;;;5.20;;
51495;SDS011;37572;52.094;4.870;2022-11-18T02:14:25;8.65;;;4.47;;
51495;SDS011;37572;52.094;4.870;2022-11-18T02:27:32;7.45;;;4.65;;
51495;SDS011;37572;52.094;4.870;2022-11-18T02:30:04;12.77;;;4.88;;
51495;SDS011;37572;52.094;4.870;2022-11-18T02:32:33;12.57;;;5.03;;
51495;SDS011;37572;52.094;4.870;2022-11-18T02:35:06;11.95;;;5.57;;
51495;SDS011;37572;52.094;4.870;2022-11-18T02:40:00;10.68;;;5.70;;
51495;SDS011;37572;52.094;4.870;2022-11-18T02:42:26;11.18;;;5.47;;
51495;SDS011;37572;52.094;4.870;2022-11-18T02:44:54;12.05;;;5.30;;
51495;SDS011;37572;52.094;4.870;2022-11-18T02:47:20;11.50;;;5.75;;
51495;SDS011;37572;52.094;4.870;2022-11-18T02:49:47;10.13;;;5.90;;
51495;SDS011;37572;52.094;4.870;2022-11-18T02:52:14;9.65;;;4.55;;
51495;SDS011;37572;52.094;4.870;2022-11-18T02:54:40;12.60;;;6.85;;
51495;SDS011;37572;52.094;4.870;2022-11-18T02:57:05;10.57;;;5.20;;
51495;SDS011;37572;52.094;4.870;2022-11-18T02:59:32;11.23;;;6.20;;
51495;SDS011;37572;52.094;4.870;2022-11-18T03:01:57;12.40;;;5.43;;
51495;SDS011;37572;52.094;4.870;2022-11-18T03:04:22;13.50;;;6.18;;
51495;SDS011;37572;52.094;4.870;2022-11-18T03:06:51;11.20;;;6.03;;
51495;SDS011;37572;52.094;4.870;2022-11-18T03:09:21;9.95;;;5.53;;
51495;SDS011;37572;52.094;4.870;2022-11-18T03:11:51;11.40;;;5.28;;
51495;SDS011;37572;52.094;4.870;2022-11-18T03:17:03;11.75;;;7.05;;
51495;SDS011;37572;52.094;4.870;2022-11-18T03:19:40;13.13;;;6.35;;
51495;SDS011;37572;52.094;4.870;2022-11-18T03:22:20;10.13;;;6.38;;
51495;SDS011;37572;52.094;4.870;2022-11-18T03:24:51;12.07;;;5.55;;
51495;SDS011;37572;52.094;4.870;2022-11-18T03:27:24;12.05;;;5.97;;
51495;SDS011;37572;52.094;4.870;2022-11-18T03:29:53;13.10;;;5.50;;
51495;SDS011;37572;52.094;4.870;2022-11-18T03:32:29;11.68;;;6.07;;
51495;SDS011;37572;52.094;4.870;2022-11-18T03:35:00;14.05;;;7.18;;
51495;SDS011;37572;52.094;4.870;2022-11-18T03:37:26;12.38;;;5.88;;
51495;SDS011;37572;52.094;4.870;2022-11-18T03:39:52;11.95;;;5.93;;
51495;SDS011;37572;52.094;4.870;2022-11-18T03:42:30;11.30;;;6.00;;
51495;SDS011;37572;52.094;4.870;2022-11-18T03:44:58;12.32;;;6.38;;
51495;SDS011;37572;52.094;4.870;2022-11-18T03:47:26;13.18;;;6.10;;
51495;SDS011;37572;52.094;4.870;2022-11-18T03:49:55;14.75;;;6.57;;
51495;SDS011;37572;52.094;4.870;2022-11-18T03:52:24;12.73;;;5.72;;
51495;SDS011;37572;52.094;4.870;2022-11-18T03:54:51;14.32;;;6.15;;
51495;SDS011;37572;52.094;4.870;2022-11-18T03:57:19;13.55;;;6.10;;
51495;SDS011;37572;52.094;4.870;2022-11-18T04:02:29;15.60;;;7.35;;
51495;SDS011;37572;52.094;4.870;2022-11-18T04:04:55;11.70;;;6.60;;
51495;SDS011;37572;52.094;4.870;2022-11-18T04:07:23;12.10;;;7.15;;
51495;SDS011;37572;52.094;4.870;2022-11-18T04:09:54;11.88;;;7.00;;
51495;SDS011;37572;52.094;4.870;2022-11-18T04:12:20;12.68;;;7.13;;
51495;SDS011;37572;52.094;4.870;2022-11-18T04:14:48;14.73;;;6.97;;
51495;SDS011;37572;52.094;4.870;2022-11-18T04:17:17;14.35;;;7.47;;
51495;SDS011;37572;52.094;4.870;2022-11-18T04:19:43;13.68;;;7.32;;
51495;SDS011;37572;52.094;4.870;2022-11-18T04:22:09;14.20;;;6.30;;
51495;SDS011;37572;52.094;4.870;2022-11-18T04:24:34;16.50;;;7.70;;
51495;SDS011;37572;52.094;4.870;2022-11-18T04:26:59;13.27;;;7.10;;
51495;SDS011;37572;52.094;4.870;2022-11-18T04:29:26;13.68;;;6.82;;
51495;SDS011;37572;52.094;4.870;2022-11-18T04:31:51;10.17;;;5.87;;
51495;SDS011;37572;52.094;4.870;2022-11-18T04:34:16;11.23;;;6.70;;
51495;SDS011;37572;52.094;4.870;2022-11-18T04:36:42;17.73;;;7.60;;
51495;SDS011;37572;52.094;4.870;2022-11-18T04:39:07;14.43;;;7.67;;
51495;SDS011;37572;52.094;4.870;2022-11-18T04:41:32;12.53;;;7.40;;
51495;SDS011;37572;52.094;4.870;2022-11-18T04:44:16;14.57;;;7.18;;
51495;SDS011;37572;52.094;4.870;2022-11-18T04:46:42;11.73;;;7.17;;
51495;SDS011;37572;52.094;4.870;2022-11-18T04:49:07;12.98;;;7.03;;
51495;SDS011;37572;52.094;4.870;2022-11-18T04:51:33;13.77;;;6.82;;
51495;SDS011;37572;52.094;4.870;2022-11-18T04:53:58;12.07;;;6.15;;
51495;SDS011;37572;52.094;4.870;2022-11-18T04:56:23;13.52;;;6.95;;
51495;SDS011;37572;52.094;4.870;2022-11-18T04:58:48;8.67;;;5.80;;
51495;SDS011;37572;52.094;4.870;2022-11-18T05:01:13;12.80;;;6.33;;
51495;SDS011;37572;52.094;4.870;2022-11-18T05:03:38;15.17;;;6.97;;
51495;SDS011;37572;52.094;4.870;2022-11-18T05:06:04;12.47;;;6.60;;
51495;SDS011;37572;52.094;4.870;2022-11-18T05:08:30;11.63;;;6.27;;
51495;SDS011;37572;52.094;4.870;2022-11-18T05:10:55;13.93;;;6.90;;
51495;SDS011;37572;52.094;4.870;2022-11-18T05:13:40;12.30;;;6.28;;
51495;SDS011;37572;52.094;4.870;2022-11-18T05:16:05;13.10;;;6.00;;
51495;SDS011;37572;52.094;4.870;2022-11-18T05:18:30;12.27;;;6.43;;
51495;SDS011;37572;52.094;4.870;2022-11-18T05:20:56;15.00;;;7.40;;
51495;SDS011;37572;52.094;4.870;2022-11-18T05:23:21;10.53;;;6.00;;
51495;SDS011;37572;52.094;4.870;2022-11-18T05:25:46;11.70;;;6.30;;
51495;SDS011;37572;52.094;4.870;2022-11-18T05:28:11;12.97;;;6.70;;
51495;SDS011;37572;52.094;4.870;2022-11-18T05:30:36;12.27;;;5.63;;
51495;SDS011;37572;52.094;4.870;2022-11-18T05:33:01;9.33;;;6.20;;
51495;SDS011;37572;52.094;4.870;2022-11-18T05:35:27;12.57;;;5.43;;
51495;SDS011;37572;52.094;4.870;2022-11-18T05:37:52;13.23;;;6.40;;
51495;SDS011;37572;52.094;4.870;2022-11-18T05:40:17;9.47;;;4.90;;
51495;SDS011;37572;52.094;4.870;2022-11-18T05:42:42;11.63;;;6.20;;
51495;SDS011;37572;52.094;4.870;2022-11-18T05:45:26;10.45;;;6.60;;
51495;SDS011;37572;52.094;4.870;2022-11-18T05:47:51;11.73;;;6.40;;
51495;SDS011;37572;52.094;4.870;2022-11-18T05:50:25;11.07;;;6.63;;
51495;SDS011;37572;52.094;4.870;2022-11-18T05:52:50;11.20;;;5.83;;
51495;SDS011;37572;52.094;4.870;2022-11-18T05:55:15;14.60;;;6.63;;
51495;SDS011;37572;52.094;4.870;2022-11-18T05:57:41;13.85;;;6.93;;
51495;SDS011;37572;52.094;4.870;2022-11-18T06:00:07;13.50;;;5.63;;
51495;SDS011;37572;52.094;4.870;2022-11-18T06:02:32;13.88;;;6.15;;
51495;SDS011;37572;52.094;4.870;2022-11-18T06:04:58;12.17;;;5.37;;
51495;SDS011;37572;52.094;4.870;2022-11-18T06:07:29;11.13;;;5.93;;
51495;SDS011;37572;52.094;4.870;2022-11-18T06:09:57;13.02;;;7.05;;
51495;SDS011;37572;52.094;4.870;2022-11-18T06:12:24;11.93;;;5.80;;
51495;SDS011;37572;52.094;4.870;2022-11-18T06:14:51;12.95;;;6.32;;
51495;SDS011;37572;52.094;4.870;2022-11-18T06:17:21;10.77;;;5.53;;
51495;SDS011;37572;52.094;4.870;2022-11-18T06:19:48;13.32;;;5.82;;
51495;SDS011;37572;52.094;4.870;2022-11-18T06:22:13;11.23;;;5.28;;
51495;SDS011;37572;52.094;4.870;2022-11-18T06:24:38;10.90;;;6.50;;
51495;SDS011;37572;52.094;4.870;2022-11-18T06:27:04;11.10;;;5.25;;
51495;SDS011;37572;52.094;4.870;2022-11-18T06:29:29;9.25;;;5.57;;
51495;SDS011;37572;52.094;4.870;2022-11-18T06:31:55;8.93;;;5.47;;
51495;SDS011;37572;52.094;4.870;2022-11-18T06:34:20;10.47;;;5.83;;
51495;SDS011;37572;52.094;4.870;2022-11-18T06:36:45;9.33;;;5.17;;
51495;SDS011;37572;52.094;4.870;2022-11-18T06:39:10;8.03;;;5.07;;
51495;SDS011;37572;52.094;4.870;2022-11-18T06:41:35;11.87;;;6.17;;
51495;SDS011;37572;52.094;4.870;2022-11-18T06:44:01;10.80;;;5.40;;
51495;SDS011;37572;52.094;4.870;2022-11-18T06:46:26;10.60;;;5.60;;
51495;SDS011;37572;52.094;4.870;2022-11-18T06:49:09;11.50;;;6.30;;
51495;SDS011;37572;52.094;4.870;2022-11-18T06:51:35;13.52;;;6.30;;
51495;SDS011;37572;52.094;4.870;2022-11-18T06:54:00;10.40;;;6.27;;
51495;SDS011;37572;52.094;4.870;2022-11-18T06:56:25;12.43;;;6.37;;
51495;SDS011;37572;52.094;4.870;2022-11-18T06:58:54;11.07;;;5.93;;
51495;SDS011;37572;52.094;4.870;2022-11-18T07:01:21;10.98;;;6.18;;
51495;SDS011;37572;52.094;4.870;2022-11-18T07:03:46;11.80;;;6.75;;
51495;SDS011;37572;52.094;4.870;2022-11-18T07:06:12;10.15;;;6.15;;
51495;SDS011;37572;52.094;4.870;2022-11-18T07:08:38;11.20;;;6.63;;
51495;SDS011;37572;52.094;4.870;2022-11-18T07:11:04;11.57;;;6.82;;
51495;SDS011;37572;52.094;4.870;2022-11-18T07:13:31;12.18;;;5.97;;
51495;SDS011;37572;52.094;4.870;2022-11-18T07:16:00;12.30;;;5.75;;
51495;SDS011;37572;52.094;4.870;2022-11-18T07:18:25;11.70;;;5.72;;
51495;SDS011;37572;52.094;4.870;2022-11-18T07:20:50;12.63;;;5.70;;
51495;SDS011;37572;52.094;4.870;2022-11-18T07:23:15;10.80;;;5.63;;
51495;SDS011;37572;52.094;4.870;2022-11-18T07:25:41;12.70;;;5.83;;
51495;SDS011;37572;52.094;4.870;2022-11-18T07:28:06;11.20;;;5.63;;
51495;SDS011;37572;52.094;4.870;2022-11-18T07:30:31;12.00;;;6.13;;
51495;SDS011;37572;52.094;4.870;2022-11-18T07:32:56;10.07;;;5.77;;
51495;SDS011;37572;52.094;4.870;2022-11-18T07:35:21;8.63;;;5.30;;
51495;SDS011;37572;52.094;4.870;2022-11-18T07:37:47;11.40;;;5.57;;
51495;SDS011;37572;52.094;4.870;2022-11-18T07:40:12;9.13;;;5.70;;
51495;SDS011;37572;52.094;4.870;2022-11-18T07:42:37;11.00;;;5.53;;
51495;SDS011;37572;52.094;4.870;2022-11-18T07:45:11;10.85;;;6.28;;
51495;SDS011;37572;52.094;4.870;2022-11-18T07:47:36;9.95;;;5.90;;
51495;SDS011;37572;52.094;4.870;2022-11-18T07:50:01;10.63;;;6.57;;
51495;SDS011;37572;52.094;4.870;2022-11-18T07:52:26;10.43;;;6.55;;
51495;SDS011;37572;52.094;4.870;2022-11-18T07:54:52;12.40;;;5.77;;
51495;SDS011;37572;52.094;4.870;2022-11-18T07:57:17;11.53;;;5.50;;
51495;SDS011;37572;52.094;4.870;2022-11-18T07:59:42;11.03;;;5.77;;
51495;SDS011;37572;52.094;4.870;2022-11-18T08:02:10;9.70;;;5.83;;
51495;SDS011;37572;52.094;4.870;2022-11-18T08:04:35;11.27;;;6.75;;
51495;SDS011;37572;52.094;4.870;2022-11-18T08:07:01;11.20;;;6.15;;
51495;SDS011;37572;52.094;4.870;2022-11-18T08:09:26;9.37;;;5.43;;
51495;SDS011;37572;52.094;4.870;2022-11-18T08:11:51;10.50;;;5.47;;
51495;SDS011;37572;52.094;4.870;2022-11-18T08:14:16;10.30;;;6.33;;
51495;SDS011;37572;52.094;4.870;2022-11-18T08:16:41;11.67;;;5.77;;
51495;SDS011;37572;52.094;4.870;2022-11-18T08:19:06;10.57;;;5.33;;
51495;SDS011;37572;52.094;4.870;2022-11-18T08:21:32;10.20;;;5.67;;
51495;SDS011;37572;52.094;4.870;2022-11-18T08:23:57;9.20;;;4.67;;
51495;SDS011;37572;52.094;4.870;2022-11-18T08:26:22;8.07;;;5.27;;
51495;SDS011;37572;52.094;4.870;2022-11-18T08:28:47;9.20;;;5.40;;
51495;SDS011;37572;52.094;4.870;2022-11-18T08:31:14;10.68;;;5.63;;
51495;SDS011;37572;52.094;4.870;2022-11-18T08:33:40;9.85;;;5.53;;
51495;SDS011;37572;52.094;4.870;2022-11-18T08:36:06;9.30;;;5.13;;
51495;SDS011;37572;52.094;4.870;2022-11-18T08:38:32;8.05;;;4.35;;
51495;SDS011;37572;52.094;4.870;2022-11-18T08:40:57;9.93;;;4.80;;
51495;SDS011;37572;52.094;4.870;2022-11-18T08:43:22;11.10;;;5.70;;
51495;SDS011;37572;52.094;4.870;2022-11-18T08:45:47;9.47;;;4.77;;
51495;SDS011;37572;52.094;4.870;2022-11-18T08:48:12;10.77;;;5.47;;
51495;SDS011;37572;52.094;4.870;2022-11-18T08:50:38;9.50;;;4.90;;
51495;SDS011;37572;52.094;4.870;2022-11-18T08:53:03;9.00;;;5.20;;
51495;SDS011;37572;52.094;4.870;2022-11-18T08:55:28;10.60;;;4.87;;
51495;SDS011;37572;52.094;4.870;2022-11-18T08:57:53;10.37;;;4.70;;
51495;SDS011;37572;52.094;4.870;2022-11-18T09:00:18;10.93;;;5.60;;
51495;SDS011;37572;52.094;4.870;2022-11-18T09:02:44;10.43;;;4.80;;
51495;SDS011;37572;52.094;4.870;2022-11-18T09:05:09;8.90;;;5.67;;
51495;SDS011;37572;52.094;4.870;2022-11-18T09:07:34;10.73;;;5.30;;
51495;SDS011;37572;52.094;4.870;2022-11-18T09:09:59;8.87;;;5.13;;
51495;SDS011;37572;52.094;4.870;2022-11-18T09:12:24;8.87;;;5.17;;
51495;SDS011;37572;52.094;4.870;2022-11-18T09:14:49;9.23;;;5.67;;
51495;SDS011;37572;52.094;4.870;2022-11-18T09:17:15;7.97;;;4.67;;
51495;SDS011;37572;52.094;4.870;2022-11-18T09:19:40;8.23;;;4.63;;
51495;SDS011;37572;52.094;4.870;2022-11-18T09:22:05;11.05;;;5.00;;
51495;SDS011;37572;52.094;4.870;2022-11-18T09:24:31;10.80;;;4.60;;
51495;SDS011;37572;52.094;4.870;2022-11-18T09:26:56;10.63;;;5.53;;
51495;SDS011;37572;52.094;4.870;2022-11-18T09:29:23;10.48;;;5.53;;
51495;SDS011;37572;52.094;4.870;2022-11-18T09:31:50;9.20;;;5.00;;
51495;SDS011;37572;52.094;4.870;2022-11-18T09:34:15;9.82;;;4.95;;
51495;SDS011;37572;52.094;4.870;2022-11-18T09:36:41;10.00;;;5.80;;
51495;SDS011;37572;52.094;4.870;2022-11-18T09:39:06;9.20;;;4.70;;
51495;SDS011;37572;52.094;4.870;2022-11-18T09:46:58;13.23;;;5.07;;
51495;SDS011;37572;52.094;4.870;2022-11-18T09:49:29;9.85;;;4.80;;
51495;SDS011;37572;52.094;4.870;2022-11-18T09:51:54;10.57;;;4.75;;
51495;SDS011;37572;52.094;4.870;2022-11-18T09:54:21;8.27;;;4.47;;
51495;SDS011;37572;52.094;4.870;2022-11-18T09:56:47;7.53;;;4.82;;
51495;SDS011;37572;52.094;4.870;2022-11-18T09:59:14;10.35;;;5.47;;
51495;SDS011;37572;52.094;4.870;2022-11-18T10:01:42;7.47;;;4.95;;
51495;SDS011;37572;52.094;4.870;2022-11-18T10:04:12;9.48;;;4.80;;
51495;SDS011;37572;52.094;4.870;2022-11-18T10:06:38;9.75;;;4.72;;
51495;SDS011;37572;52.094;4.870;2022-11-18T10:11:37;10.73;;;5.72;;
51495;SDS011;37572;52.094;4.870;2022-11-18T10:14:18;8.13;;;4.68;;
51495;SDS011;37572;52.094;4.870;2022-11-18T10:19:14;8.60;;;4.77;;
51495;SDS011;37572;52.094;4.870;2022-11-18T10:21:59;9.43;;;4.80;;
51495;SDS011;37572;52.094;4.870;2022-11-18T10:24:38;13.13;;;5.80;;
51495;SDS011;37572;52.094;4.870;2022-11-18T10:27:07;9.27;;;4.97;;
51495;SDS011;37572;52.094;4.870;2022-11-18T10:29:34;11.27;;;5.20;;
51495;SDS011;37572;52.094;4.870;2022-11-18T10:34:25;11.27;;;5.57;;
51495;SDS011;37572;52.094;4.870;2022-11-18T10:37:06;8.25;;;4.72;;
51495;SDS011;37572;52.094;4.870;2022-11-18T10:39:48;11.32;;;5.05;;
51495;SDS011;37572;52.094;4.870;2022-11-18T10:42:23;8.93;;;4.70;;
51495;SDS011;37572;52.094;4.870;2022-11-18T10:44:49;8.50;;;5.45;;
51495;SDS011;37572;52.094;4.870;2022-11-18T10:47:15;10.07;;;5.50;;
51495;SDS011;37572;52.094;4.870;2022-11-18T10:49:41;11.20;;;4.97;;
51495;SDS011;37572;52.094;4.870;2022-11-18T10:52:10;9.83;;;4.97;;
51495;SDS011;37572;52.094;4.870;2022-11-18T10:54:35;9.77;;;5.30;;
51495;SDS011;37572;52.094;4.870;2022-11-18T10:59:39;8.25;;;5.22;;
51495;SDS011;37572;52.094;4.870;2022-11-18T11:02:15;12.05;;;6.10;;
51495;SDS011;37572;52.094;4.870;2022-11-18T11:04:41;12.95;;;5.82;;
51495;SDS011;37572;52.094;4.870;2022-11-18T11:07:14;11.00;;;6.10;;
51495;SDS011;37572;52.094;4.870;2022-11-18T11:09:39;11.23;;;5.85;;
51495;SDS011;37572;52.094;4.870;2022-11-18T11:12:12;12.33;;;5.67;;
51495;SDS011;37572;52.094;4.870;2022-11-18T11:17:13;10.70;;;5.55;;
51495;SDS011;37572;52.094;4.870;2022-11-18T11:22:07;9.43;;;5.87;;
51495;SDS011;37572;52.094;4.870;2022-11-18T11:24:33;11.63;;;6.13;;
51495;SDS011;37572;52.094;4.870;2022-11-18T11:27:04;14.03;;;5.43;;
51495;SDS011;37572;52.094;4.870;2022-11-18T11:29:35;11.00;;;5.47;;
51495;SDS011;37572;52.094;4.870;2022-11-18T11:34:41;10.20;;;5.50;;
51495;SDS011;37572;52.094;4.870;2022-11-18T11:39:43;10.13;;;5.30;;
51495;SDS011;37572;52.094;4.870;2022-11-18T11:47:26;11.07;;;5.47;;
51495;SDS011;37572;52.094;4.870;2022-11-18T11:50:12;12.15;;;6.60;;
51495;SDS011;37572;52.094;4.870;2022-11-18T11:52:47;14.73;;;7.63;;
51495;SDS011;37572;52.094;4.870;2022-11-18T11:57:52;10.63;;;5.87;;
51495;SDS011;37572;52.094;4.870;2022-11-18T12:00:19;9.75;;;6.20;;
51495;SDS011;37572;52.094;4.870;2022-11-18T12:05:14;11.00;;;6.50;;
51495;SDS011;37572;52.094;4.870;2022-11-18T12:07:44;11.68;;;6.97;;
51495;SDS011;37572;52.094;4.870;2022-11-18T12:17:36;14.82;;;9.07;;
51495;SDS011;37572;52.094;4.870;2022-11-18T12:20:50;18.23;;;9.00;;
51495;SDS011;37572;52.094;4.870;2022-11-18T12:25:47;14.48;;;8.95;;
51495;SDS011;37572;52.094;4.870;2022-11-18T12:33:52;16.13;;;8.82;;
51495;SDS011;37572;52.094;4.870;2022-11-18T12:36:33;17.50;;;9.95;;
51495;SDS011;37572;52.094;4.870;2022-11-18T12:44:31;16.70;;;9.65;;
51495;SDS011;37572;52.094;4.870;2022-11-18T12:46:57;15.70;;;8.97;;
51495;SDS011;37572;52.094;4.870;2022-11-18T12:51:48;14.60;;;9.23;;
51495;SDS011;37572;52.094;4.870;2022-11-18T12:54:19;12.68;;;8.77;;
51495;SDS011;37572;52.094;4.870;2022-11-18T12:56:46;14.77;;;9.02;;
51495;SDS011;37572;52.094;4.870;2022-11-18T12:59:12;12.98;;;8.70;;
51495;SDS011;37572;52.094;4.870;2022-11-18T13:01:37;14.73;;;8.27;;
51495;SDS011;37572;52.094;4.870;2022-11-18T13:06:30;16.40;;;8.73;;
51495;SDS011;37572;52.094;4.870;2022-11-18T13:09:18;18.75;;;9.55;;
51495;SDS011;37572;52.094;4.870;2022-11-18T13:11:53;14.50;;;7.97;;
51495;SDS011;37572;52.094;4.870;2022-11-18T13:14:20;14.55;;;8.43;;
51495;SDS011;37572;52.094;4.870;2022-11-18T13:17:24;19.90;;;9.30;;
51495;SDS011;37572;52.094;4.870;2022-11-18T13:26:03;17.88;;;8.20;;
51495;SDS011;37572;52.094;4.870;2022-11-18T13:31:06;15.35;;;9.85;;
51495;SDS011;37572;52.094;4.870;2022-11-18T13:33:37;17.92;;;8.85;;
51495;SDS011;37572;52.094;4.870;2022-11-18T13:36:02;17.60;;;8.95;;
51495;SDS011;37572;52.094;4.870;2022-11-18T13:38:37;15.82;;;9.18;;
51495;SDS011;37572;52.094;4.870;2022-11-18T13:41:12;15.60;;;10.20;;
51495;SDS011;37572;52.094;4.870;2022-11-18T13:43:42;17.98;;;9.93;;
51495;SDS011;37572;52.094;4.870;2022-11-18T13:46:12;16.87;;;10.13;;
51495;SDS011;37572;52.094;4.870;2022-11-18T13:48:38;18.27;;;9.68;;
51495;SDS011;37572;52.094;4.870;2022-11-18T13:51:05;18.42;;;10.35;;
51495;SDS011;37572;52.094;4.870;2022-11-18T13:53:37;21.47;;;11.63;;
51495;SDS011;37572;52.094;4.870;2022-11-18T13:56:06;21.55;;;11.13;;
51495;SDS011;37572;52.094;4.870;2022-11-18T14:01:14;17.30;;;9.95;;
51495;SDS011;37572;52.094;4.870;2022-11-18T14:06:08;18.13;;;10.25;;
51495;SDS011;37572;52.094;4.870;2022-11-18T14:08:34;18.42;;;10.15;;
51495;SDS011;37572;52.094;4.870;2022-11-18T14:11:00;16.27;;;9.43;;
51495;SDS011;37572;52.094;4.870;2022-11-18T14:13:30;17.15;;;9.90;;
51495;SDS011;37572;52.094;4.870;2022-11-18T14:15:57;18.77;;;9.15;;
51495;SDS011;37572;52.094;4.870;2022-11-18T14:20:54;17.90;;;9.82;;
51495;SDS011;37572;52.094;4.870;2022-11-18T14:23:23;19.57;;;10.00;;
51495;SDS011;37572;52.094;4.870;2022-11-18T14:25:50;20.05;;;10.52;;
51495;SDS011;37572;52.094;4.870;2022-11-18T14:28:23;19.17;;;9.83;;
51495;SDS011;37572;52.094;4.870;2022-11-18T14:33:31;19.85;;;10.13;;
51495;SDS011;37572;52.094;4.870;2022-11-18T14:36:09;17.38;;;10.65;;
51495;SDS011;37572;52.094;4.870;2022-11-18T14:38:38;19.65;;;9.98;;
51495;SDS011;37572;52.094;4.870;2022-11-18T14:41:07;21.30;;;10.55;;
51495;SDS011;37572;52.094;4.870;2022-11-18T14:43:32;20.35;;;10.85;;
51495;SDS011;37572;52.094;4.870;2022-11-18T14:45:58;23.20;;;10.95;;
51495;SDS011;37572;52.094;4.870;2022-11-18T14:48:24;19.23;;;10.18;;
51495;SDS011;37572;52.094;4.870;2022-11-18T14:50:50;17.85;;;10.55;;
51495;SDS011;37572;52.094;4.870;2022-11-18T14:53:16;20.60;;;10.55;;
51495;SDS011;37572;52.094;4.870;2022-11-18T14:55:41;17.73;;;9.93;;
51495;SDS011;37572;52.094;4.870;2022-11-18T14:58:11;18.55;;;10.18;;
51495;SDS011;37572;52.094;4.870;2022-11-18T15:00:37;18.92;;;10.73;;
51495;SDS011;37572;52.094;4.870;2022-11-18T15:03:03;17.13;;;10.82;;
51495;SDS011;37572;52.094;4.870;2022-11-18T15:05:28;14.77;;;8.03;;
51495;SDS011;37572;52.094;4.870;2022-11-18T15:07:53;22.43;;;11.67;;
51495;SDS011;37572;52.094;4.870;2022-11-18T15:10:18;22.40;;;11.53;;
51495;SDS011;37572;52.094;4.870;2022-11-18T15:12:43;18.80;;;11.33;;
51495;SDS011;37572;52.094;4.870;2022-11-18T15:15:09;22.00;;;12.03;;
51495;SDS011;37572;52.094;4.870;2022-11-18T15:17:34;22.70;;;11.93;;
51495;SDS011;37572;52.094;4.870;2022-11-18T15:19:59;23.23;;;12.97;;
51495;SDS011;37572;52.094;4.870;2022-11-18T15:22:24;21.73;;;11.77;;
51495;SDS011;37572;52.094;4.870;2022-11-18T15:24:50;21.47;;;11.67;;
51495;SDS011;37572;52.094;4.870;2022-11-18T15:27:15;21.40;;;11.23;;
51495;SDS011;37572;52.094;4.870;2022-11-18T15:29:40;24.13;;;12.87;;
51495;SDS011;37572;52.094;4.870;2022-11-18T15:32:05;26.00;;;13.57;;
51495;SDS011;37572;52.094;4.870;2022-11-18T15:34:30;28.67;;;13.23;;
51495;SDS011;37572;52.094;4.870;2022-11-18T15:36:56;27.33;;;13.53;;
51495;SDS011;37572;52.094;4.870;2022-11-18T15:39:21;29.93;;;13.50;;
51495;SDS011;37572;52.094;4.870;2022-11-18T15:41:46;29.70;;;14.40;;
51495;SDS011;37572;52.094;4.870;2022-11-18T15:44:11;34.00;;;14.80;;
51495;SDS011;37572;52.094;4.870;2022-11-18T15:46:37;27.90;;;14.10;;
51495;SDS011;37572;52.094;4.870;2022-11-18T15:49:02;28.88;;;14.27;;
51495;SDS011;37572;52.094;4.870;2022-11-18T15:51:28;28.95;;;14.18;;
51495;SDS011;37572;52.094;4.870;2022-11-18T15:53:54;29.27;;;13.35;;
51495;SDS011;37572;52.094;4.870;2022-11-18T15:58:50;32.70;;;16.20;;
51495;SDS011;37572;52.094;4.870;2022-11-18T16:01:15;28.98;;;14.20;;
51495;SDS011;37572;52.094;4.870;2022-11-18T16:03:41;24.10;;;12.77;;
51495;SDS011;37572;52.094;4.870;2022-11-18T16:06:06;31.87;;;15.23;;
51495;SDS011;37572;52.094;4.870;2022-11-18T16:08:31;28.15;;;14.30;;
51495;SDS011;37572;52.094;4.870;2022-11-18T16:10:57;29.57;;;15.40;;
51495;SDS011;37572;52.094;4.870;2022-11-18T16:13:40;30.27;;;15.50;;
51495;SDS011;37572;52.094;4.870;2022-11-18T16:16:06;31.50;;;16.07;;
51495;SDS011;37572;52.094;4.870;2022-11-18T16:18:31;27.10;;;14.23;;
51495;SDS011;37572;52.094;4.870;2022-11-18T16:20:57;29.17;;;13.97;;
51495;SDS011;37572;52.094;4.870;2022-11-18T16:23:22;33.65;;;15.75;;
51495;SDS011;37572;52.094;4.870;2022-11-18T16:25:47;30.33;;;15.00;;